Time;durP1;ratioP1;P1;durP2;ratioP2;P2;SDS_P1;SDS_P2;PMS_P1;PMS_P2;Temp;Humidity;BMP_temperature;BMP_pressure;BME280_temperature;BME280_humidity;BME280_pressure;Samples;Min_cycle;Max_cycle;Signal;HPM_P1;HPM_P2
2024/01/22 00:02:15;;;;;;;17.73;13.45;;;-0.40;99.90;;;;;;5075044;28;20210;-67
2024/01/22 00:04:41;;;;;;;14.88;13.38;;;-0.30;99.90;;;;;;5074452;28;20230;-66
2024/01/22 00:07:10;;;;;;;15.55;14.05;;;-0.30;99.90;;;;;;5074548;28;20680;-66
2024/01/22 00:09:36;;;;;;;16.40;13.10;;;-0.20;99.90;;;;;;5074071;28;20297;-66
2024/01/22 00:12:04;;;;;;;17.33;12.35;;;-0.20;99.90;;;;;;5062638;28;20293;-67
2024/01/22 00:14:30;;;;;;;15.57;14.07;;;-0.20;99.90;;;;;;5074447;28;20860;-66
2024/01/22 00:16:56;;;;;;;17.07;12.50;;;-0.10;99.90;;;;;;5074109;28;20211;-66
2024/01/22 00:19:23;;;;;;;18.50;13.50;;;-0.10;99.90;;;;;;5074511;28;20458;-67
2024/01/22 00:21:50;;;;;;;15.75;13.07;;;-0.10;99.90;;;;;;5073219;28;20270;-66
2024/01/22 00:24:18;;;;;;;15.60;12.07;;;0.00;99.90;;;;;;5074201;28;20233;-66
2024/01/22 00:26:45;;;;;;;12.98;11.77;;;0.00;99.90;;;;;;5072291;28;20236;-66
2024/01/22 00:29:12;;;;;;;13.10;10.20;;;0.00;99.90;;;;;;5070410;28;20205;-66
2024/01/22 00:31:39;;;;;;;12.57;11.25;;;0.00;99.90;;;;;;5072091;28;20675;-67
2024/01/22 00:34:05;;;;;;;12.90;11.55;;;0.10;99.90;;;;;;5073598;28;20209;-66
2024/01/22 00:36:32;;;;;;;10.30;9.40;;;0.10;99.90;;;;;;5073413;28;20296;-66
2024/01/22 00:38:59;;;;;;;13.50;9.88;;;0.10;99.90;;;;;;5072654;28;20201;-67
2024/01/22 00:41:27;;;;;;;13.10;11.40;;;0.10;99.90;;;;;;5073737;28;20296;-67
2024/01/22 00:43:54;;;;;;;11.65;10.45;;;0.10;99.90;;;;;;5074180;28;20209;-66
2024/01/22 00:46:21;;;;;;;12.50;10.85;;;0.20;99.90;;;;;;5073848;28;20301;-66
2024/01/22 00:48:48;;;;;;;13.23;11.65;;;0.20;99.90;;;;;;5074420;28;20585;-67
2024/01/22 00:51:15;;;;;;;13.90;11.05;;;0.20;99.90;;;;;;5073674;28;20212;-66
2024/01/22 00:53:42;;;;;;;15.75;13.77;;;0.20;99.90;;;;;;5074158;28;20209;-66
2024/01/22 00:56:09;;;;;;;12.40;11.13;;;0.20;99.90;;;;;;5073660;28;20232;-66
2024/01/22 00:58:37;;;;;;;12.48;11.32;;;0.30;99.90;;;;;;5073555;28;20205;-67
2024/01/22 01:01:04;;;;;;;11.68;10.65;;;0.30;99.90;;;;;;5073895;28;20238;-66
2024/01/22 01:03:31;;;;;;;11.93;10.30;;;0.30;99.90;;;;;;5073644;28;20227;-67
2024/01/22 01:05:58;;;;;;;11.13;9.63;;;0.30;99.90;;;;;;5073382;28;20233;-66
2024/01/22 01:08:25;;;;;;;10.23;9.25;;;0.30;99.90;;;;;;5073559;28;20216;-66
2024/01/22 01:10:52;;;;;;;10.43;9.45;;;0.40;99.90;;;;;;5073531;28;20205;-67
2024/01/22 01:13:19;;;;;;;10.75;9.30;;;0.40;99.90;;;;;;5073722;28;20588;-67
2024/01/22 01:15:47;;;;;;;13.00;10.52;;;0.40;99.90;;;;;;5073776;28;20225;-66
2024/01/22 01:18:14;;;;;;;9.68;8.88;;;0.40;99.90;;;;;;5073496;28;20209;-67
2024/01/22 01:20:41;;;;;;;9.93;8.98;;;0.40;99.90;;;;;;5073592;28;20210;-67
2024/01/22 01:23:07;;;;;;;8.95;8.05;;;0.40;99.90;;;;;;5073757;28;20209;-67
2024/01/22 01:25:36;;;;;;;8.75;7.45;;;0.50;99.90;;;;;;5072986;28;20786;-66
2024/01/22 01:28:03;;;;;;;10.45;9.45;;;0.50;99.90;;;;;;5073374;28;20214;-66
2024/01/22 01:30:29;;;;;;;10.88;9.88;;;0.50;99.90;;;;;;5073194;28;20202;-66
2024/01/22 01:32:58;;;;;;;10.32;9.20;;;0.50;99.90;;;;;;5073277;28;20296;-67
2024/01/22 01:35:24;;;;;;;9.05;8.15;;;0.50;99.90;;;;;;5073374;28;20609;-66
2024/01/22 01:37:52;;;;;;;11.65;8.75;;;0.50;99.90;;;;;;5073161;28;20206;-66
2024/01/22 01:40:19;;;;;;;10.07;9.07;;;0.50;99.90;;;;;;5073023;28;20209;-66
2024/01/22 01:42:46;;;;;;;9.18;8.35;;;0.50;99.90;;;;;;5071933;28;20236;-66
2024/01/22 01:45:14;;;;;;;7.50;6.90;;;0.50;99.90;;;;;;5072635;28;20236;-67
2024/01/22 01:47:42;;;;;;;7.75;6.95;;;0.50;99.90;;;;;;5072308;28;20587;-66
2024/01/22 01:50:11;;;;;;;9.85;7.18;;;0.40;99.90;;;;;;5073113;28;20202;-66
2024/01/22 01:52:38;;;;;;;8.48;7.65;;;0.30;99.90;;;;;;5072744;28;20659;-67
2024/01/22 01:55:07;;;;;;;7.97;7.22;;;0.30;99.90;;;;;;5066800;28;20606;-67
2024/01/22 01:57:36;;;;;;;7.75;6.80;;;0.20;99.90;;;;;;5052675;28;20256;-67
2024/01/22 02:00:04;;;;;;;6.22;5.70;;;0.20;99.90;;;;;;5052576;28;20214;-66
2024/01/22 02:02:31;;;;;;;5.18;4.72;;;0.10;99.90;;;;;;5052914;28;20206;-66
2024/01/22 02:04:58;;;;;;;5.93;5.32;;;0.00;99.90;;;;;;5052496;28;20230;-66
2024/01/22 02:07:26;;;;;;;5.13;4.63;;;0.00;99.90;;;;;;5052531;28;20712;-67
2024/01/22 02:09:53;;;;;;;5.43;4.90;;;-0.10;99.90;;;;;;5051783;28;20217;-65
2024/01/22 02:12:20;;;;;;;7.97;5.20;;;-0.10;99.90;;;;;;5051952;28;20210;-66
2024/01/22 02:14:47;;;;;;;5.55;4.00;;;-0.10;99.90;;;;;;5052378;28;20661;-66
2024/01/22 02:17:14;;;;;;;5.95;5.45;;;-0.20;99.90;;;;;;5052385;28;20203;-67
2024/01/22 02:19:41;;;;;;;5.80;5.30;;;-0.20;99.90;;;;;;5052216;28;20224;-65
2024/01/22 02:22:08;;;;;;;5.47;4.95;;;-0.20;99.90;;;;;;5052212;28;20202;-66
2024/01/22 02:24:36;;;;;;;6.60;6.00;;;-0.30;99.90;;;;;;5067252;28;20233;-66
2024/01/22 02:27:03;;;;;;;5.65;4.18;;;-0.30;99.90;;;;;;5072094;28;20729;-66
2024/01/22 02:29:30;;;;;;;4.93;4.00;;;-0.30;99.90;;;;;;5072312;28;20237;-66
2024/01/22 02:31:57;;;;;;;5.18;4.78;;;-0.30;99.90;;;;;;5071943;28;20295;-66
2024/01/22 02:34:24;;;;;;;5.55;4.63;;;-0.40;99.90;;;;;;5072206;28;20225;-66
2024/01/22 02:36:51;;;;;;;7.68;6.25;;;-0.40;99.90;;;;;;5072136;28;20212;-67
2024/01/22 02:39:18;;;;;;;6.63;5.45;;;-0.40;99.90;;;;;;5071798;28;20705;-65
2024/01/22 02:41:46;;;;;;;6.63;6.03;;;-0.50;99.90;;;;;;5071343;28;20301;-66
2024/01/22 02:44:13;;;;;;;6.45;5.47;;;-0.50;99.90;;;;;;5072120;28;20229;-67
2024/01/22 02:46:39;;;;;;;5.90;5.40;;;-0.50;99.90;;;;;;5071583;28;20251;-66
2024/01/22 02:49:09;;;;;;;5.80;5.10;;;-0.50;99.90;;;;;;5070870;28;20683;-67
2024/01/22 02:51:36;;;;;;;6.13;5.35;;;-0.60;99.90;;;;;;5071399;28;20623;-66
2024/01/22 02:54:04;;;;;;;8.50;7.63;;;-0.60;99.90;;;;;;5071372;28;20585;-66
2024/01/22 02:56:31;;;;;;;6.82;6.18;;;-0.60;99.90;;;;;;5072035;28;20209;-66
2024/01/22 02:58:59;;;;;;;9.80;7.68;;;-0.60;99.90;;;;;;5071881;28;20209;-66
2024/01/22 03:01:26;;;;;;;7.18;6.30;;;-0.60;99.90;;;;;;5071676;28;20663;-66
2024/01/22 03:03:53;;;;;;;5.65;5.13;;;-0.60;99.90;;;;;;5071599;28;20312;-66
2024/01/22 03:06:20;;;;;;;6.00;5.28;;;-0.60;99.90;;;;;;5071474;28;20224;-65
2024/01/22 03:08:47;;;;;;;7.57;6.38;;;-0.60;99.90;;;;;;5071654;28;20243;-66
2024/01/22 03:11:14;;;;;;;7.63;6.88;;;-0.60;99.90;;;;;;5071721;28;20205;-66
2024/01/22 03:13:40;;;;;;;7.80;6.93;;;-0.60;99.90;;;;;;5071686;28;20216;-64
2024/01/22 03:16:09;;;;;;;7.72;7.00;;;-0.60;99.90;;;;;;5071367;28;20221;-65
2024/01/22 03:18:35;;;;;;;7.88;7.10;;;-0.50;99.90;;;;;;5071434;28;20201;-66
2024/01/22 03:21:03;;;;;;;7.93;7.28;;;-0.50;99.90;;;;;;5071315;28;20230;-66
2024/01/22 03:23:30;;;;;;;7.35;6.75;;;-0.50;99.90;;;;;;5071176;28;20205;-64
2024/01/22 03:25:57;;;;;;;6.28;5.68;;;-0.40;99.90;;;;;;5071542;28;20317;-66
2024/01/22 03:28:24;;;;;;;6.35;5.75;;;-0.40;99.90;;;;;;5071338;28;20209;-65
2024/01/22 03:30:51;;;;;;;7.97;6.53;;;-0.40;99.90;;;;;;5071322;28;20675;-66
2024/01/22 03:33:19;;;;;;;7.95;7.15;;;-0.40;99.90;;;;;;5071169;28;20301;-65
2024/01/22 03:35:46;;;;;;;7.53;6.85;;;-0.30;99.90;;;;;;5071143;28;20233;-66
2024/01/22 03:38:13;;;;;;;9.00;6.97;;;-0.30;99.90;;;;;;5071268;28;20205;-65
2024/01/22 03:40:39;;;;;;;7.00;6.30;;;-0.30;99.90;;;;;;5071235;28;20292;-66
2024/01/22 03:43:06;;;;;;;8.38;7.10;;;-0.30;99.90;;;;;;5071386;28;20205;-66
2024/01/22 03:45:33;;;;;;;6.40;5.90;;;-0.30;99.90;;;;;;5071252;28;20230;-66
2024/01/22 03:48:00;;;;;;;8.90;6.00;;;-0.30;99.90;;;;;;5071199;28;20202;-67
2024/01/22 03:50:28;;;;;;;8.50;5.55;;;-0.30;99.90;;;;;;5070951;28;20267;-66
2024/01/22 03:52:55;;;;;;;6.53;5.95;;;-0.30;99.90;;;;;;5071411;28;20212;-65
2024/01/22 03:55:21;;;;;;;6.70;6.10;;;-0.30;99.90;;;;;;5094008;22;20229;-64
2024/01/22 03:57:48;;;;;;;7.10;6.40;;;-0.20;99.90;;;;;;5070825;28;20208;-63
2024/01/22 04:00:16;;;;;;;7.03;6.40;;;-0.20;99.90;;;;;;5070958;28;20209;-64
2024/01/22 04:02:52;;;;;;;;;;;;;;;;;;;;;
2024/01/22 04:05:32;;;;;;;9.25;8.32;;;-0.20;99.90;;;;;;4989379;28;20232;-64
2024/01/22 04:07:59;;;;;;;5.78;5.25;;;-0.20;99.90;;;;;;4989543;28;20307;-64
2024/01/22 04:10:26;;;;;;;5.20;4.70;;;-0.20;99.90;;;;;;4989441;28;20235;-64
2024/01/22 04:12:55;;;;;;;5.28;4.88;;;-0.20;99.90;;;;;;4989538;28;20213;-63
2024/01/22 04:15:22;;;;;;;5.22;4.82;;;-0.10;99.90;;;;;;4989488;28;20229;-64
2024/01/22 04:17:50;;;;;;;5.07;4.57;;;-0.10;99.90;;;;;;4989586;28;20303;-64
2024/01/22 04:20:17;;;;;;;5.75;4.65;;;0.00;99.90;;;;;;4989226;28;20221;-64
2024/01/22 04:22:45;;;;;;;4.15;3.85;;;0.00;99.90;;;;;;5009558;28;20224;-64
2024/01/22 04:25:12;;;;;;;2.60;2.40;;;0.10;99.90;;;;;;5070916;28;20229;-63
2024/01/22 04:27:38;;;;;;;4.32;3.65;;;0.10;99.90;;;;;;5070880;28;20301;-63
2024/01/22 04:30:06;;;;;;;4.00;3.60;;;0.10;99.90;;;;;;5070657;28;20202;-63
2024/01/22 04:32:33;;;;;;;7.03;5.05;;;0.20;99.90;;;;;;5071043;28;20317;-64
2024/01/22 04:35:00;;;;;;;5.90;5.40;;;0.20;99.90;;;;;;5073346;28;20228;-64
2024/01/22 04:37:27;;;;;;;7.00;4.20;;;0.20;99.90;;;;;;5074355;28;20202;-64
2024/01/22 04:39:57;;;;;;;2.53;2.42;;;0.20;99.90;;;;;;5074151;28;20296;-64
2024/01/22 04:42:23;;;;;;;2.65;2.47;;;0.30;99.90;;;;;;5074434;28;20209;-64
2024/01/22 04:44:50;;;;;;;3.65;3.45;;;0.30;99.90;;;;;;5074034;28;20723;-64
2024/01/22 04:47:18;;;;;;;3.00;2.70;;;0.30;99.90;;;;;;5074351;28;20221;-63
2024/01/22 04:49:45;;;;;;;4.05;3.70;;;0.30;99.90;;;;;;5074395;28;20206;-64
2024/01/22 04:52:12;;;;;;;3.20;3.00;;;0.40;99.90;;;;;;5073915;28;20676;-64
2024/01/22 04:54:39;;;;;;;3.25;2.85;;;0.40;99.90;;;;;;5073864;28;20264;-64
2024/01/22 04:57:07;;;;;;;6.80;3.92;;;0.50;99.90;;;;;;5073942;28;20208;-64
2024/01/22 04:59:34;;;;;;;4.28;3.95;;;0.50;99.90;;;;;;5074061;28;20205;-64
2024/01/22 05:02:00;;;;;;;3.75;3.45;;;0.50;99.90;;;;;;5073859;28;20235;-64
2024/01/22 05:04:27;;;;;;;3.78;3.47;;;0.50;99.90;;;;;;5073792;28;20225;-64
2024/01/22 05:06:54;;;;;;;2.70;2.47;;;0.50;99.90;;;;;;5073774;28;20225;-64
2024/01/22 05:09:21;;;;;;;3.50;2.90;;;0.50;99.90;;;;;;5073802;28;20201;-64
2024/01/22 05:11:48;;;;;;;3.40;3.00;;;0.50;99.90;;;;;;5073511;28;20209;-64
2024/01/22 05:14:16;;;;;;;2.45;2.25;;;0.50;99.90;;;;;;5073219;28;20737;-63
2024/01/22 05:16:43;;;;;;;3.50;2.30;;;0.60;99.90;;;;;;5073096;28;20209;-64
2024/01/22 05:19:10;;;;;;;3.60;3.00;;;0.60;99.90;;;;;;5070156;28;20301;-64
2024/01/22 05:21:37;;;;;;;3.15;2.70;;;0.60;99.90;;;;;;5072127;28;20206;-64
2024/01/22 05:24:04;;;;;;;4.13;2.60;;;0.70;99.90;;;;;;5071393;28;20708;-64
2024/01/22 05:26:31;;;;;;;2.35;2.15;;;0.70;99.90;;;;;;5073104;28;20231;-64
2024/01/22 05:28:57;;;;;;;2.38;2.17;;;0.70;99.90;;;;;;5073332;28;20208;-64
2024/01/22 05:31:26;;;;;;;2.60;2.40;;;0.80;99.90;;;;;;5073120;28;20209;-64
2024/01/22 05:33:52;;;;;;;3.33;3.03;;;0.80;99.90;;;;;;5071970;28;20212;-64
2024/01/22 05:36:19;;;;;;;4.00;2.58;;;0.90;99.90;;;;;;5072453;28;20232;-64
2024/01/22 05:38:46;;;;;;;2.50;2.30;;;0.90;99.90;;;;;;5072824;28;20202;-64
2024/01/22 05:41:13;;;;;;;2.80;2.60;;;0.90;99.90;;;;;;5073189;28;20206;-64
2024/01/22 05:43:40;;;;;;;2.75;2.55;;;0.90;99.90;;;;;;5073326;28;20216;-64
2024/01/22 05:46:07;;;;;;;2.60;2.40;;;1.00;99.90;;;;;;5071872;28;20232;-64
2024/01/22 05:48:35;;;;;;;3.20;2.20;;;1.00;99.90;;;;;;5073049;28;20233;-64
2024/01/22 05:51:02;;;;;;;3.45;2.72;;;1.00;99.90;;;;;;5072662;28;20281;-64
2024/01/22 05:53:29;;;;;;;2.15;2.00;;;1.00;99.90;;;;;;5072765;28;20460;-64
2024/01/22 05:55:56;;;;;;;2.00;1.90;;;1.00;99.90;;;;;;5072779;28;20286;-64
2024/01/22 05:58:23;;;;;;;1.90;1.80;;;1.10;99.90;;;;;;5072891;28;20210;-63
2024/01/22 06:00:51;;;;;;;2.67;2.47;;;1.10;99.90;;;;;;5072681;28;20590;-63
2024/01/22 06:03:18;;;;;;;2.78;2.25;;;1.20;99.90;;;;;;5072935;28;20286;-64
2024/01/22 06:05:46;;;;;;;2.60;2.40;;;1.20;99.90;;;;;;5072465;28;20230;-64
2024/01/22 06:08:13;;;;;;;2.90;2.60;;;1.20;99.90;;;;;;5072444;28;20626;-64
2024/01/22 06:10:40;;;;;;;2.15;2.05;;;1.20;99.90;;;;;;5072567;28;20212;-64
2024/01/22 06:13:07;;;;;;;12.95;4.55;;;1.30;99.90;;;;;;5072688;28;20210;-63
2024/01/22 06:15:34;;;;;;;2.70;2.50;;;1.30;99.90;;;;;;5072326;28;20232;-64
2024/01/22 06:18:01;;;;;;;2.50;2.30;;;1.30;99.90;;;;;;5072500;28;20224;-64
2024/01/22 06:20:29;;;;;;;2.78;2.53;;;1.30;99.90;;;;;;5072016;28;20297;-64
2024/01/22 06:22:58;;;;;;;2.90;2.70;;;1.40;99.90;;;;;;5072394;28;20216;-64
2024/01/22 06:25:24;;;;;;;2.25;2.15;;;1.40;99.90;;;;;;5072475;28;20225;-64
2024/01/22 06:27:51;;;;;;;2.95;2.65;;;1.40;99.90;;;;;;5071901;28;20458;-64
2024/01/22 06:30:18;;;;;;;2.60;2.40;;;1.40;99.90;;;;;;5072147;28;20638;-64
2024/01/22 06:32:45;;;;;;;2.65;1.92;;;1.40;99.90;;;;;;5072385;28;20583;-64
2024/01/22 06:35:12;;;;;;;1.80;1.70;;;1.40;99.90;;;;;;5071906;28;20228;-64
2024/01/22 06:37:39;;;;;;;3.72;2.20;;;1.40;99.90;;;;;;5071951;28;20201;-64
2024/01/22 06:40:09;;;;;;;2.20;2.00;;;1.40;99.90;;;;;;5072065;28;20212;-64
2024/01/22 06:42:35;;;;;;;2.08;1.98;;;1.40;99.90;;;;;;5072025;28;20680;-63
2024/01/22 06:45:02;;;;;;;2.80;2.17;;;1.40;99.90;;;;;;5071942;28;20225;-64
2024/01/22 06:47:30;;;;;;;2.13;2.03;;;1.50;99.90;;;;;;5071800;28;20775;-64
2024/01/22 06:49:57;;;;;;;1.83;1.70;;;1.50;99.90;;;;;;5072081;28;20205;-64
2024/01/22 06:52:24;;;;;;;3.13;2.83;;;1.50;99.90;;;;;;5071825;28;20225;-64
2024/01/22 06:54:51;;;;;;;2.40;2.25;;;1.50;99.90;;;;;;5071297;28;20621;-64
2024/01/22 06:57:19;;;;;;;1.77;1.67;;;1.50;99.90;;;;;;5070912;28;20204;-63
2024/01/22 06:59:45;;;;;;;2.38;2.10;;;1.50;99.90;;;;;;5071648;28;20206;-64
2024/01/22 07:02:14;;;;;;;2.05;1.60;;;1.50;99.90;;;;;;5071436;28;20202;-64
2024/01/22 07:04:40;;;;;;;4.75;1.90;;;1.50;99.90;;;;;;5071245;28;20308;-64
2024/01/22 07:07:07;;;;;;;1.73;1.65;;;1.50;99.90;;;;;;5069788;28;20225;-64
2024/01/22 07:09:34;;;;;;;2.45;2.25;;;1.50;99.90;;;;;;5068210;28;20678;-64
2024/01/22 07:12:01;;;;;;;2.08;1.90;;;1.50;99.90;;;;;;5067345;28;20293;-64
2024/01/22 07:14:29;;;;;;;1.15;1.10;;;1.60;99.90;;;;;;5071192;28;20225;-64
2024/01/22 07:16:56;;;;;;;2.35;1.90;;;1.60;99.90;;;;;;5071206;28;20198;-64
2024/01/22 07:19:23;;;;;;;2.58;1.80;;;1.60;99.90;;;;;;5071259;28;20292;-64
2024/01/22 07:21:49;;;;;;;1.85;1.75;;;1.60;99.90;;;;;;5071172;28;20296;-64
2024/01/22 07:24:16;;;;;;;2.55;2.38;;;1.60;99.90;;;;;;5071404;28;20668;-64
2024/01/22 07:26:43;;;;;;;2.05;1.85;;;1.60;99.90;;;;;;5071157;28;20225;-64
2024/01/22 07:29:10;;;;;;;2.00;1.90;;;1.60;99.90;;;;;;5071150;28;20233;-64
2024/01/22 07:31:38;;;;;;;1.67;1.58;;;1.60;99.90;;;;;;5071292;28;20233;-64
2024/01/22 07:34:06;;;;;;;2.10;2.00;;;1.60;99.90;;;;;;5070931;28;20208;-64
2024/01/22 07:36:33;;;;;;;1.83;1.73;;;1.60;99.90;;;;;;5071223;28;20292;-64
2024/01/22 07:39:00;;;;;;;1.55;1.45;;;1.60;99.90;;;;;;5071119;28;20205;-64
2024/01/22 07:41:26;;;;;;;2.35;1.88;;;1.60;99.90;;;;;;5070131;28;20822;-64
2024/01/22 07:43:53;;;;;;;2.20;2.00;;;1.60;99.90;;;;;;5063639;28;20201;-64
2024/01/22 07:46:20;;;;;;;3.65;1.80;;;1.60;99.90;;;;;;5071108;28;20663;-64
2024/01/22 07:48:48;;;;;;;2.20;2.10;;;1.60;99.90;;;;;;5071059;28;20202;-64
2024/01/22 07:51:15;;;;;;;2.05;1.85;;;1.60;99.90;;;;;;5057717;28;20569;-64
2024/01/22 07:53:43;;;;;;;3.35;2.50;;;1.60;99.90;;;;;;5071198;28;20305;-64
2024/01/22 07:56:09;;;;;;;2.17;1.98;;;1.60;99.90;;;;;;5057927;28;20233;-64
2024/01/22 07:58:39;;;;;;;1.90;1.80;;;1.70;99.90;;;;;;5070633;28;20703;-64
2024/01/22 08:01:06;;;;;;;3.85;2.15;;;1.70;99.90;;;;;;5070857;28;20287;-64
2024/01/22 08:03:32;;;;;;;1.95;1.75;;;1.70;99.90;;;;;;5070995;28;20565;-64
2024/01/22 08:06:01;;;;;;;4.20;1.85;;;1.70;99.90;;;;;;5070784;28;20227;-64
2024/01/22 08:08:28;;;;;;;2.05;1.92;;;1.70;99.90;;;;;;5070917;28;20566;-64
2024/01/22 08:10:55;;;;;;;1.92;1.80;;;1.70;99.90;;;;;;5074516;28;20205;-63
2024/01/22 08:13:22;;;;;;;2.10;2.00;;;1.70;99.90;;;;;;5074508;28;20672;-64
2024/01/22 08:15:49;;;;;;;2.28;2.08;;;1.70;99.90;;;;;;5074736;28;20367;-64
2024/01/22 08:18:16;;;;;;;1.90;1.60;;;1.70;99.90;;;;;;5074632;28;20255;-64
2024/01/22 08:20:43;;;;;;;2.25;2.10;;;1.70;99.90;;;;;;5074504;28;20292;-64
2024/01/22 08:23:12;;;;;;;1.50;1.50;;;1.80;99.90;;;;;;5074248;28;20289;-64
2024/01/22 08:25:39;;;;;;;2.35;1.83;;;1.80;99.90;;;;;;5074157;28;20221;-64
2024/01/22 08:28:06;;;;;;;1.85;1.75;;;1.80;99.90;;;;;;5074293;28;20229;-64
2024/01/22 08:30:33;;;;;;;2.35;1.90;;;1.80;99.90;;;;;;5074207;28;20209;-64
2024/01/22 08:33:00;;;;;;;1.90;1.80;;;1.80;99.90;;;;;;5074401;28;20289;-64
2024/01/22 08:35:27;;;;;;;3.40;1.73;;;1.80;99.90;;;;;;5065146;28;20221;-63
2024/01/22 08:37:54;;;;;;;2.67;1.85;;;1.90;99.90;;;;;;5067567;28;20198;-63
2024/01/22 08:40:24;;;;;;;2.17;2.03;;;1.90;99.90;;;;;;5071088;28;20202;-63
2024/01/22 08:42:51;;;;;;;2.60;1.90;;;1.90;99.90;;;;;;5066184;28;20622;-64
2024/01/22 08:45:19;;;;;;;4.43;2.17;;;1.90;99.90;;;;;;5070452;28;20313;-64
2024/01/22 08:47:46;;;;;;;2.55;1.50;;;2.00;99.90;;;;;;5072790;28;20217;-64
2024/01/22 08:50:17;;;;;;;1.90;1.70;;;2.00;99.90;;;;;;5071812;28;20236;-63
2024/01/22 08:52:44;;;;;;;2.13;2.03;;;2.00;99.90;;;;;;5072838;28;20238;-63
2024/01/22 08:55:11;;;;;;;1.60;1.50;;;2.00;99.90;;;;;;5073496;28;20612;-64
2024/01/22 08:57:40;;;;;;;1.85;1.55;;;2.00;99.90;;;;;;5073302;28;20198;-64
2024/01/22 09:00:10;;;;;;;1.90;1.80;;;2.10;99.90;;;;;;5071001;28;20634;-64
2024/01/22 09:02:39;;;;;;;2.03;1.92;;;2.10;99.90;;;;;;5073074;28;20205;-64
2024/01/22 09:05:07;;;;;;;2.38;2.10;;;2.10;99.90;;;;;;5069586;28;20283;-63
2024/01/22 09:07:34;;;;;;;1.65;1.35;;;2.20;99.90;;;;;;5072220;28;20236;-63
2024/01/22 09:10:02;;;;;;;1.95;1.85;;;2.20;99.90;;;;;;5072896;28;20207;-63
2024/01/22 09:12:29;;;;;;;1.80;1.70;;;2.20;99.90;;;;;;5072892;28;20214;-64
2024/01/22 09:14:57;;;;;;;1.95;1.85;;;2.20;99.90;;;;;;5071204;28;20730;-64
2024/01/22 09:17:24;;;;;;;1.65;1.55;;;2.30;99.90;;;;;;5072782;28;20209;-64
2024/01/22 09:19:51;;;;;;;2.13;1.88;;;2.30;99.90;;;;;;5071612;28;20248;-64
2024/01/22 09:22:19;;;;;;;2.10;2.00;;;2.30;99.90;;;;;;5072912;28;20212;-64
2024/01/22 09:24:46;;;;;;;4.95;3.50;;;2.30;99.90;;;;;;5070430;28;20234;-64
2024/01/22 09:27:13;;;;;;;3.13;2.80;;;2.40;99.90;;;;;;5072227;28;20311;-64
2024/01/22 09:29:42;;;;;;;4.53;4.13;;;2.50;99.90;;;;;;5071888;28;20305;-64
2024/01/22 09:32:10;;;;;;;2.60;2.50;;;2.70;99.90;;;;;;5072204;28;20225;-64
2024/01/22 09:34:37;;;;;;;4.43;3.88;;;2.90;99.90;;;;;;5071447;28;20733;-64
2024/01/22 09:37:05;;;;;;;3.00;2.70;;;3.10;99.90;;;;;;5065917;28;20208;-63
2024/01/22 09:39:32;;;;;;;4.75;4.22;;;3.30;99.90;;;;;;5071559;28;20208;-64
2024/01/22 09:41:59;;;;;;;3.60;3.10;;;3.40;99.90;;;;;;5072411;28;20596;-64
2024/01/22 09:44:26;;;;;;;2.80;2.60;;;3.50;99.90;;;;;;5071629;28;20218;-64
2024/01/22 09:46:53;;;;;;;5.47;2.70;;;3.70;99.90;;;;;;5071643;28;20302;-64
2024/01/22 09:49:21;;;;;;;6.05;3.10;;;3.80;99.90;;;;;;5067628;28;20198;-64
2024/01/22 09:51:50;;;;;;;3.35;2.70;;;3.90;99.90;;;;;;5071942;28;20212;-64
2024/01/22 09:54:19;;;;;;;2.17;2.00;;;4.10;99.90;;;;;;5071132;28;20289;-64
2024/01/22 09:56:50;;;;;;;2.92;2.05;;;4.20;99.90;;;;;;5072151;28;20205;-64
2024/01/22 09:59:19;;;;;;;3.25;2.83;;;4.30;99.90;;;;;;5070846;28;20293;-64
2024/01/22 10:01:47;;;;;;;3.20;2.92;;;4.40;99.90;;;;;;5071726;28;20298;-64
2024/01/22 10:04:14;;;;;;;2.47;2.00;;;4.50;99.90;;;;;;5071220;28;20293;-64
2024/01/22 10:06:44;;;;;;;4.47;3.72;;;4.60;99.90;;;;;;5072381;28;20259;-64
2024/01/22 10:09:14;;;;;;;2.22;1.98;;;4.70;99.90;;;;;;5071118;28;20222;-64
2024/01/22 10:11:42;;;;;;;4.72;2.88;;;4.80;99.90;;;;;;5069882;28;20206;-64
2024/01/22 10:14:08;;;;;;;4.03;2.92;;;4.90;99.90;;;;;;5071202;28;20209;-64
2024/01/22 10:16:36;;;;;;;2.25;2.15;;;4.90;99.90;;;;;;5072004;28;20225;-64
2024/01/22 10:19:05;;;;;;;2.25;2.15;;;5.00;99.90;;;;;;5071317;28;20784;-64
2024/01/22 10:21:32;;;;;;;2.30;2.10;;;5.00;99.90;;;;;;5071743;28;20263;-64
2024/01/22 10:24:02;;;;;;;3.40;2.65;;;5.00;99.90;;;;;;5071124;28;20234;-64
2024/01/22 10:26:31;;;;;;;4.22;2.67;;;5.10;99.90;;;;;;5071289;28;20293;-64
2024/01/22 10:29:14;;;;;;;3.55;2.50;;;5.20;99.90;;;;;;5070864;28;20243;-64
2024/01/22 10:32:02;;;;;;;2.55;2.00;;;5.20;99.90;;;;;;5068649;28;20667;-64
2024/01/22 10:34:30;;;;;;;2.55;2.35;;;5.20;99.90;;;;;;5066112;28;20304;-63
2024/01/22 10:37:07;;;;;;;2.03;1.80;;;5.20;99.90;;;;;;5061449;28;20263;-64
2024/01/22 10:39:36;;;;;;;2.00;1.90;;;5.30;99.90;;;;;;5070459;28;20205;-63
2024/01/22 10:42:10;;;;;;;1.88;1.40;;;5.40;99.90;;;;;;5071140;28;20290;-64
2024/01/22 10:44:37;;;;;;;3.22;1.73;;;5.40;99.90;;;;;;5070263;28;20309;-63
2024/01/22 10:47:05;;;;;;;2.22;1.77;;;5.50;99.90;;;;;;5070613;28;20535;-64
2024/01/22 10:49:33;;;;;;;2.53;1.60;;;5.50;99.90;;;;;;5069818;28;20206;-64
2024/01/22 10:52:02;;;;;;;3.25;1.50;;;5.60;99.90;;;;;;5070647;28;20206;-63
2024/01/22 10:54:29;;;;;;;3.67;3.45;;;5.70;99.90;;;;;;5069952;28;20294;-63
2024/01/22 10:57:03;;;;;;;4.80;4.30;;;5.80;99.90;;;;;;5070572;28;20207;-62
2024/01/22 10:59:31;;;;;;;4.68;1.70;;;5.80;99.90;;;;;;5069378;28;20208;-63
2024/01/22 11:01:59;;;;;;;2.10;2.00;;;5.80;99.90;;;;;;5068343;28;20205;-63
2024/01/22 11:04:33;;;;;;;1.80;1.52;;;5.90;99.90;;;;;;5070514;28;20234;-63
2024/01/22 11:07:01;;;;;;;2.00;1.90;;;5.90;99.90;;;;;;5067984;28;20197;-62
2024/01/22 11:09:32;;;;;;;2.28;2.00;;;6.00;99.90;;;;;;5070105;28;20583;-63
2024/01/22 11:12:05;;;;;;;3.90;2.35;;;6.00;99.90;;;;;;5067612;28;20213;-63
2024/01/22 11:14:33;;;;;;;2.40;2.10;;;6.10;99.90;;;;;;5069781;28;20239;-63
2024/01/22 11:17:02;;;;;;;2.00;1.85;;;6.20;99.90;;;;;;5063194;28;20229;-63
2024/01/22 11:19:29;;;;;;;4.20;2.75;;;6.20;99.90;;;;;;5069795;28;20194;-63
2024/01/22 11:21:56;;;;;;;2.35;2.22;;;6.20;99.90;;;;;;5068828;28;20288;-63
2024/01/22 11:24:23;;;;;;;2.00;1.83;;;6.20;99.90;;;;;;5069989;28;20304;-63
2024/01/22 11:27:06;;;;;;;2.03;1.75;;;6.20;99.90;;;;;;5068880;28;20259;-63
2024/01/22 11:29:34;;;;;;;2.13;1.77;;;6.20;99.90;;;;;;5069025;28;20711;-64
2024/01/22 11:32:26;;;;;;;2.40;2.20;;;6.10;99.90;;;;;;5067197;28;20289;-63
2024/01/22 11:34:57;;;;;;;3.65;3.35;;;6.20;99.90;;;;;;5070261;28;20221;-63
2024/01/22 11:37:35;;;;;;;2.33;2.22;;;6.20;99.90;;;;;;5066418;28;20388;-63
2024/01/22 11:40:02;;;;;;;2.33;2.13;;;6.20;99.90;;;;;;5069501;28;20201;-63
2024/01/22 11:42:31;;;;;;;2.33;2.15;;;6.20;99.90;;;;;;5069355;28;20576;-62
2024/01/22 11:45:09;;;;;;;2.47;2.28;;;6.30;99.90;;;;;;5065388;28;20249;-62
2024/01/22 11:47:37;;;;;;;1.80;1.70;;;6.30;99.90;;;;;;5073142;28;20608;-63
2024/01/22 11:50:07;;;;;;;2.65;2.33;;;6.30;99.90;;;;;;5073651;28;20202;-62
2024/01/22 11:52:35;;;;;;;2.05;1.50;;;6.30;99.90;;;;;;5073657;28;20202;-63
2024/01/22 11:55:03;;;;;;;1.73;1.60;;;6.30;99.90;;;;;;5073638;28;20320;-62
2024/01/22 11:57:35;;;;;;;1.50;1.40;;;6.40;99.90;;;;;;5073848;28;20223;-62
2024/01/22 12:00:05;;;;;;;1.48;1.38;;;6.40;99.90;;;;;;5069151;28;20683;-62
2024/01/22 12:02:32;;;;;;;1.45;1.35;;;6.40;99.90;;;;;;5071358;28;20201;-62
2024/01/22 12:05:04;;;;;;;1.40;1.40;;;6.50;99.90;;;;;;5072572;28;20224;-62
2024/01/22 12:07:34;;;;;;;1.60;1.50;;;6.50;99.90;;;;;;5071540;28;20567;-62
2024/01/22 12:10:02;;;;;;;1.77;1.67;;;6.50;99.90;;;;;;5069615;28;20205;-62
2024/01/22 12:12:30;;;;;;;1.95;1.75;;;6.50;99.90;;;;;;5073324;28;20285;-62
2024/01/22 12:14:58;;;;;;;5.05;3.03;;;6.60;99.90;;;;;;5070663;28;20225;-62
2024/01/22 12:17:26;;;;;;;1.70;1.40;;;6.60;99.90;;;;;;5073406;28;20198;-62
2024/01/22 12:19:55;;;;;;;3.45;3.25;;;6.60;99.90;;;;;;5073663;28;20289;-62
2024/01/22 12:22:23;;;;;;;2.45;2.10;;;6.70;99.90;;;;;;5073081;28;20712;-62
2024/01/22 12:25:06;;;;;;;1.98;1.88;;;6.70;99.90;;;;;;5073585;28;20225;-62
2024/01/22 12:27:36;;;;;;;2.17;2.08;;;6.70;99.90;;;;;;5073514;28;20209;-62
2024/01/22 12:30:05;;;;;;;1.90;1.80;;;6.80;99.90;;;;;;5073222;28;20225;-62
2024/01/22 12:32:32;;;;;;;1.80;1.70;;;6.80;99.90;;;;;;5073251;28;20209;-62
2024/01/22 12:35:00;;;;;;;3.88;2.40;;;6.90;99.90;;;;;;5067135;28;20222;-61
2024/01/22 12:37:29;;;;;;;1.70;1.63;;;6.90;99.90;;;;;;5073305;28;20692;-61
2024/01/22 12:40:07;;;;;;;2.50;2.30;;;7.10;99.90;;;;;;5073587;28;20202;-62
2024/01/22 12:42:35;;;;;;;2.63;2.42;;;7.10;99.90;;;;;;5073996;28;20236;-61
2024/01/22 12:45:02;;;;;;;3.88;3.10;;;7.20;99.90;;;;;;5065660;28;20604;-61
2024/01/22 12:47:30;;;;;;;2.35;2.15;;;7.40;99.90;;;;;;5073442;28;20198;-61
2024/01/22 12:49:57;;;;;;;2.22;2.13;;;7.60;99.90;;;;;;5072827;28;20260;-61
2024/01/22 12:52:24;;;;;;;2.25;2.05;;;7.70;99.90;;;;;;5073525;28;20681;-60
2024/01/22 12:54:51;;;;;;;2.38;2.17;;;7.70;99.90;;;;;;5072284;28;20229;-61
2024/01/22 12:57:18;;;;;;;2.72;2.53;;;7.70;99.90;;;;;;5073076;28;20212;-61
2024/01/22 12:59:48;;;;;;;2.80;2.60;;;7.70;99.90;;;;;;5072906;28;20227;-61